Hlavní strana
METAR-TAF:

METAR-TAF

Letiště :

Letiště Taškent

Taškent, Uzbekistán

zeměpisná šířka: 41-16N, zeměpisná délka: 069-16E, výška: 489 m

Aktuální stav počasí

Zpráva byla vytvořena před 39 minutami, v 18:30 UTC
Východní vítr 2 kt
Teplota 26°C
Vlhkost vzduchu 42%
Tlak 1009 hPa
Viditelnost 10 km a více
Žádná oblačnost pod 1500 m, nevyskytují se cumulonimby.

METAR: UTTT 151830Z 10002KT CAVOK 26/12 Q1009 R08R/CLRD70 NOSIG

Čas: 00:09 (19:09 UTC)

Předpověď počasí

Zpráva byla vytvořena před 2 hodinami a 9 minutami, v 17:00 UTC
Předpověď platná od 15 v 18 UTC do 16 v 18 UTC
vítr z různých směrů 2 kt
Viditelnost: 7000 m
Dočasný
od 15 v 18 UTC do 16 v 04 UTC
Východoseverovýchodní vítr 12 kt

TAF: UTTT 151700Z 1518/1618 VRB02KT 7000 NSC TX36/1610Z TEMPO 1518/1604 06012KT

Stav a předpovědi počasí z více než 4 000 letišť (zprávy METAR a TAF).

Červené a žluté tečky na mapě představují dostupné meteorologické stanice.

Když kurzor umístíte na tečku, zobrazí se název stanice.

Pak kliknutím zobrazíte stav a předpověď počasí.

Chcete-li změnit mapu, kliknutím na zelené tlačítko se znaménkem +mapu přiblížíte, kliknutím na zelené tlačítko se znaménkem – mapu oddálíte a kliknutím na zelené šipky přejdete na sousední mapy.


METAR-TAF: